Bernard A — TCWN3 — position and weather

sailwx.info

Track history (hours):
 
Tides and Currents Weather Stations Pressure Air Temp Water Temp Dewpoint Dewpoint Depression Visibility Wind Speed Wind Dir Waves Ship Positions

Bernard A

Last reported at 2014-Aug-22 15:30 UTC. Time now 2014-Aug-22 15:45 UTC.
Position N 40°58' E 028°41'.

Length 184 m; draft 7.8 m.

Type: Cargo ship. MMSI: 271040008.

Date/timePositionNaut miles runAvg speedWind from/ knotsBaromVisibWave heightAir tempDewpointWater temp
2014-Aug-22 15:30N 40°58' E 028°41'0 0.0
2014-Aug-22 14:30N 40°58' E 028°41'0 0.0
2014-Aug-22 12:24N 40°58' E 028°41'0 0.0
2014-Aug-22 10:30N 40°58' E 028°41'2 0.1
2014-Aug-21 14:33N 40°56' E 028°40'1 0.9
2014-Aug-21 13:16N 40°56' E 028°38'0 0.0
2014-Aug-21 09:19N 40°56' E 028°38'3 4.5
2014-Aug-21 08:32N 40°52' E 028°39'1313.2
2014-Aug-21 07:34N 40°40' E 028°42'2310.5
2014-Aug-21 05:23N 40°25' E 029°05'0 0.3
2014-Aug-21 04:24N 40°25' E 029°05'0 0.0
2014-Aug-21 03:30N 40°25' E 029°05'0 0.0
2014-Aug-21 02:30N 40°25' E 029°05'0 0.0
2014-Aug-21 01:30N 40°25' E 029°05'0 0.0
2014-Aug-21 00:30N 40°25' E 029°05'0 0.0
2014-Aug-20 23:18N 40°25' E 029°05'0 0.0
2014-Aug-20 22:24N 40°25' E 029°05'0 0.0
2014-Aug-20 21:30N 40°25' E 029°05'0 0.0
2014-Aug-20 20:30N 40°25' E 029°05'0 0.0
2014-Aug-20 19:33N 40°25' E 029°05'2 1.7
2014-Aug-20 18:33N 40°26' E 029°03'12 7.9
2014-Aug-20 17:05N 40°27' E 028°48'712.9
2014-Aug-20 16:33N 40°33' E 028°43'1515.0
2014-Aug-20 15:33N 40°48' E 028°41'10 3.1
2014-Aug-20 12:14N 40°58' E 028°41'0 0.0
2014-Aug-20 11:32N 40°58' E 028°41'0 0.0
2014-Aug-20 10:32N 40°58' E 028°41'0 0.0
2014-Aug-20 09:20N 40°58' E 028°41'0 0.0
2014-Aug-20 08:20N 40°58' E 028°41'0 0.0
2014-Aug-20 07:14N 40°58' E 028°41'0 0.0
2014-Aug-20 06:14N 40°58' E 028°41'0 0.0
2014-Aug-20 05:26N 40°58' E 028°41'0 0.0
2014-Aug-20 04:32N 40°58' E 028°41'0 0.0
2014-Aug-20 03:32N 40°58' E 028°41'0 0.0
2014-Aug-20 02:32N 40°58' E 028°41'0 0.0
2014-Aug-20 01:26N 40°58' E 028°41'0 0.0
2014-Aug-20 00:26N 40°58' E 028°41'0 0.0
2014-Aug-19 23:20N 40°58' E 028°41'0 0.0
2014-Aug-19 22:32N 40°58' E 028°41'1 1.4
2014-Aug-19 21:33N 40°57' E 028°41'1 0.1
2014-Aug-18 21:26N 40°56' E 028°39'2 0.3
2014-Aug-18 13:26N 40°58' E 028°40'0 0.0
2014-Aug-18 12:14N 40°58' E 028°40'0 0.0
2014-Aug-18 08:32N 40°58' E 028°40'0 0.2
2014-Aug-18 06:10N 40°57' E 028°41'  
2014-Aug-15 20:28N 44°07' E 028°48'0 0.0
2014-Aug-15 18:31N 44°07' E 028°48'0 0.0
2014-Aug-15 17:31N 44°07' E 028°48'253 7.7
2014-Aug-14 08:33N 44°02' E 034°41'1414.2
2014-Aug-14 07:34N 44°02' E 035°00'1414.5
2014-Aug-14 06:33N 44°02' E 035°21'1514.5
2014-Aug-14 05:32N 44°03' E 035°41'10013.6
2014-Aug-13 22:13N 44°41' E 037°50'3 4.8
2014-Aug-13 21:33N 44°44' E 037°47'0 0.0
2014-Aug-13 20:33N 44°44' E 037°47'0 0.0
2014-Aug-13 19:33N 44°44' E 037°47'0 0.0
2014-Aug-13 18:33N 44°44' E 037°47'0 0.0
2014-Aug-13 17:33N 44°44' E 037°47'0 0.0
2014-Aug-13 16:33N 44°44' E 037°47'0 0.0
2014-Aug-13 15:33N 44°44' E 037°47'0 0.0
2014-Aug-13 14:33N 44°44' E 037°47'0 0.0
2014-Aug-13 13:33N 44°44' E 037°47'0 0.0
2014-Aug-13 12:33N 44°44' E 037°47'0 0.0
2014-Aug-13 11:33N 44°44' E 037°47'0 0.0
2014-Aug-13 10:33N 44°44' E 037°47'0 0.0
2014-Aug-13 09:33N 44°44' E 037°47'0 0.0
2014-Aug-13 08:33N 44°44' E 037°47'0 0.0
2014-Aug-13 07:33N 44°44' E 037°47'0 0.0
2014-Aug-13 06:33N 44°44' E 037°47'0 0.0
2014-Aug-13 05:33N 44°44' E 037°47'0 0.0
2014-Aug-13 04:33N 44°44' E 037°47'0 0.0
2014-Aug-13 03:33N 44°44' E 037°47'0 0.0
2014-Aug-13 02:33N 44°44' E 037°47'0 0.0
2014-Aug-13 01:33N 44°44' E 037°47'0 0.0
2014-Aug-13 00:33N 44°44' E 037°47'0 0.0
2014-Aug-12 23:33N 44°44' E 037°47'0 0.0
2014-Aug-12 22:33N 44°44' E 037°47'0 0.0
2014-Aug-12 21:33N 44°44' E 037°47'0 0.0
2014-Aug-12 20:33N 44°44' E 037°47'0 0.0
2014-Aug-12 19:33N 44°44' E 037°47'0 0.0
2014-Aug-12 18:33N 44°44' E 037°47'0 0.0
2014-Aug-12 17:33N 44°44' E 037°47'0 0.0
2014-Aug-12 16:33N 44°44' E 037°47'0 0.0
2014-Aug-12 15:33N 44°44' E 037°47'  
Track history (hours):
 
Tides and Currents Weather Stations Pressure Air Temp Water Temp Dewpoint Dewpoint Depression Visibility Wind Speed Wind Dir Waves Ship Positions

Bernard A

Last reported at 2014-Aug-22 15:30 UTC. Time now 2014-Aug-22 15:45 UTC.
Position N 40°58' E 028°41'.

Length 184 m; draft 7.8 m.

Type: Cargo ship. MMSI: 271040008.

Date/timePositionNaut miles runAvg speedWind from/ knotsBaromVisibWave heightAir tempDewpointWater temp
2014-Aug-22 15:30N 40°58' E 028°41'0 0.0
2014-Aug-22 14:30N 40°58' E 028°41'0 0.0
2014-Aug-22 12:24N 40°58' E 028°41'0 0.0
2014-Aug-22 10:30N 40°58' E 028°41'2 0.1
2014-Aug-21 14:33N 40°56' E 028°40'1 0.9
2014-Aug-21 13:16N 40°56' E 028°38'0 0.0
2014-Aug-21 09:19N 40°56' E 028°38'3 4.5
2014-Aug-21 08:32N 40°52' E 028°39'1313.2
2014-Aug-21 07:34N 40°40' E 028°42'2310.5
2014-Aug-21 05:23N 40°25' E 029°05'0 0.3
2014-Aug-21 04:24N 40°25' E 029°05'0 0.0
2014-Aug-21 03:30N 40°25' E 029°05'0 0.0
2014-Aug-21 02:30N 40°25' E 029°05'0 0.0
2014-Aug-21 01:30N 40°25' E 029°05'0 0.0
2014-Aug-21 00:30N 40°25' E 029°05'0 0.0
2014-Aug-20 23:18N 40°25' E 029°05'0 0.0
2014-Aug-20 22:24N 40°25' E 029°05'0 0.0
2014-Aug-20 21:30N 40°25' E 029°05'0 0.0
2014-Aug-20 20:30N 40°25' E 029°05'0 0.0
2014-Aug-20 19:33N 40°25' E 029°05'2 1.7
2014-Aug-20 18:33N 40°26' E 029°03'12 7.9
2014-Aug-20 17:05N 40°27' E 028°48'712.9
2014-Aug-20 16:33N 40°33' E 028°43'1515.0
2014-Aug-20 15:33N 40°48' E 028°41'10 3.1
2014-Aug-20 12:14N 40°58' E 028°41'0 0.0
2014-Aug-20 11:32N 40°58' E 028°41'0 0.0
2014-Aug-20 10:32N 40°58' E 028°41'0 0.0
2014-Aug-20 09:20N 40°58' E 028°41'0 0.0
2014-Aug-20 08:20N 40°58' E 028°41'0 0.0
2014-Aug-20 07:14N 40°58' E 028°41'0 0.0
2014-Aug-20 06:14N 40°58' E 028°41'0 0.0
2014-Aug-20 05:26N 40°58' E 028°41'0 0.0
2014-Aug-20 04:32N 40°58' E 028°41'0 0.0
2014-Aug-20 03:32N 40°58' E 028°41'0 0.0
2014-Aug-20 02:32N 40°58' E 028°41'0 0.0
2014-Aug-20 01:26N 40°58' E 028°41'0 0.0
2014-Aug-20 00:26N 40°58' E 028°41'0 0.0
2014-Aug-19 23:20N 40°58' E 028°41'0 0.0
2014-Aug-19 22:32N 40°58' E 028°41'1 1.4
2014-Aug-19 21:33N 40°57' E 028°41'1 0.1
2014-Aug-18 21:26N 40°56' E 028°39'2 0.3
2014-Aug-18 13:26N 40°58' E 028°40'0 0.0
2014-Aug-18 12:14N 40°58' E 028°40'0 0.0
2014-Aug-18 08:32N 40°58' E 028°40'0 0.2
2014-Aug-18 06:10N 40°57' E 028°41'  
2014-Aug-15 20:28N 44°07' E 028°48'0 0.0
2014-Aug-15 18:31N 44°07' E 028°48'0 0.0
2014-Aug-15 17:31N 44°07' E 028°48'253 7.7
2014-Aug-14 08:33N 44°02' E 034°41'1414.2
2014-Aug-14 07:34N 44°02' E 035°00'1414.5
2014-Aug-14 06:33N 44°02' E 035°21'1514.5
2014-Aug-14 05:32N 44°03' E 035°41'10013.6
2014-Aug-13 22:13N 44°41' E 037°50'3 4.8
2014-Aug-13 21:33N 44°44' E 037°47'0 0.0
2014-Aug-13 20:33N 44°44' E 037°47'0 0.0
2014-Aug-13 19:33N 44°44' E 037°47'0 0.0
2014-Aug-13 18:33N 44°44' E 037°47'0 0.0
2014-Aug-13 17:33N 44°44' E 037°47'0 0.0
2014-Aug-13 16:33N 44°44' E 037°47'0 0.0
2014-Aug-13 15:33N 44°44' E 037°47'0 0.0
2014-Aug-13 14:33N 44°44' E 037°47'0 0.0
2014-Aug-13 13:33N 44°44' E 037°47'0 0.0
2014-Aug-13 12:33N 44°44' E 037°47'0 0.0
2014-Aug-13 11:33N 44°44' E 037°47'0 0.0
2014-Aug-13 10:33N 44°44' E 037°47'0 0.0
2014-Aug-13 09:33N 44°44' E 037°47'0 0.0
2014-Aug-13 08:33N 44°44' E 037°47'0 0.0
2014-Aug-13 07:33N 44°44' E 037°47'0 0.0
2014-Aug-13 06:33N 44°44' E 037°47'0 0.0
2014-Aug-13 05:33N 44°44' E 037°47'0 0.0
2014-Aug-13 04:33N 44°44' E 037°47'0 0.0
2014-Aug-13 03:33N 44°44' E 037°47'0 0.0
2014-Aug-13 02:33N 44°44' E 037°47'0 0.0
2014-Aug-13 01:33N 44°44' E 037°47'0 0.0
2014-Aug-13 00:33N 44°44' E 037°47'0 0.0
2014-Aug-12 23:33N 44°44' E 037°47'0 0.0
2014-Aug-12 22:33N 44°44' E 037°47'0 0.0
2014-Aug-12 21:33N 44°44' E 037°47'0 0.0
2014-Aug-12 20:33N 44°44' E 037°47'0 0.0
2014-Aug-12 19:33N 44°44' E 037°47'0 0.0
2014-Aug-12 18:33N 44°44' E 037°47'0 0.0
2014-Aug-12 17:33N 44°44' E 037°47'0 0.0
2014-Aug-12 16:33N 44°44' E 037°47'0 0.0
2014-Aug-12 15:33N 44°44' E 037°47'  

Dump ship's entire track history